createdAt,value
2022-12-20T00:01:00.221Z,9.16
2022-12-20T00:03:27.981Z,9.18
2022-12-20T00:05:57.280Z,9.17
2022-12-20T00:08:25.017Z,9.16
2022-12-20T00:10:52.723Z,9.15
2022-12-20T00:13:20.399Z,9.17
2022-12-20T00:15:48.088Z,9.18
2022-12-20T00:18:15.872Z,9.18
2022-12-20T00:20:43.595Z,9.18
2022-12-20T00:23:12.987Z,9.18
2022-12-20T00:25:40.664Z,9.18
2022-12-20T00:28:08.350Z,9.17
2022-12-20T00:30:36.945Z,9.17
2022-12-20T00:33:04.761Z,9.17
2022-12-20T00:35:32.467Z,9.18
2022-12-20T00:38:00.208Z,9.20
2022-12-20T00:40:29.246Z,9.20
2022-12-20T00:42:56.924Z,9.19
2022-12-20T00:45:24.602Z,9.21
2022-12-20T00:47:52.313Z,9.20
2022-12-20T00:50:19.971Z,9.20
2022-12-20T00:52:47.662Z,9.21
2022-12-20T00:55:15.546Z,9.21
2022-12-20T00:57:44.614Z,9.22
2022-12-20T01:00:13.033Z,9.21
2022-12-20T01:02:40.912Z,9.21
2022-12-20T01:05:09.416Z,9.21
2022-12-20T01:07:37.131Z,9.20
2022-12-20T01:10:05.120Z,9.20
2022-12-20T01:12:32.841Z,9.21
2022-12-20T01:15:01.921Z,9.24
2022-12-20T01:17:29.730Z,9.23
2022-12-20T01:19:57.420Z,9.23
2022-12-20T01:22:25.165Z,9.25
2022-12-20T01:24:52.887Z,9.25
2022-12-20T01:27:20.553Z,9.24
2022-12-20T01:29:48.327Z,9.23
2022-12-20T01:32:17.581Z,9.23
2022-12-20T01:34:45.343Z,9.23
2022-12-20T01:37:13.409Z,9.23
2022-12-20T01:39:41.209Z,9.22
2022-12-20T01:42:14.601Z,9.23
2022-12-20T01:44:56.225Z,9.14
2022-12-20T01:47:28.377Z,9.23
2022-12-20T01:49:59.410Z,9.23
2022-12-20T01:52:33.959Z,9.26
2022-12-20T01:55:09.362Z,9.26
2022-12-20T01:57:43.514Z,9.26
2022-12-20T02:00:12.519Z,9.26
2022-12-20T02:02:42.632Z,9.24
2022-12-20T02:05:11.533Z,9.27
2022-12-20T02:07:39.963Z,9.23
2022-12-20T02:10:09.978Z,9.28
2022-12-20T02:12:42.385Z,9.28
2022-12-20T02:15:26.488Z,9.29
2022-12-20T02:18:08.849Z,9.29
2022-12-20T02:20:53.281Z,9.29
2022-12-20T02:23:46.192Z,9.29
2022-12-20T02:26:36.906Z,9.29
2022-12-20T02:29:22.485Z,9.29
2022-12-20T02:31:59.315Z,9.29
2022-12-20T02:34:29.275Z,9.28
2022-12-20T02:36:57.284Z,9.29
2022-12-20T02:39:29.092Z,9.29
2022-12-20T02:41:59.927Z,9.32
2022-12-20T02:44:57.419Z,9.31
2022-12-20T02:47:32.901Z,9.31
2022-12-20T02:50:02.063Z,9.35
2022-12-20T02:52:32.669Z,9.36
2022-12-20T02:55:01.692Z,9.32
2022-12-20T02:57:38.312Z,9.37
2022-12-20T03:00:09.784Z,9.37
2022-12-20T03:02:53.396Z,9.36
2022-12-20T03:05:24.334Z,9.37
2022-12-20T03:07:53.409Z,9.31
2022-12-20T03:10:21.896Z,9.36
2022-12-20T03:12:49.706Z,9.36
2022-12-20T03:15:17.591Z,9.37
2022-12-20T03:17:46.657Z,9.36
2022-12-20T03:20:14.702Z,9.36
2022-12-20T03:22:42.392Z,9.35
2022-12-20T03:25:10.594Z,9.35
2022-12-20T03:27:38.271Z,9.36
2022-12-20T03:30:07.895Z,9.36
2022-12-20T03:32:36.000Z,9.36
2022-12-20T03:35:05.695Z,9.37
2022-12-20T03:37:33.381Z,9.37
2022-12-20T03:40:01.115Z,9.35
2022-12-20T03:42:28.819Z,9.38
2022-12-20T03:44:56.558Z,9.40
2022-12-20T03:47:24.284Z,9.41
2022-12-20T03:49:52.349Z,9.40
2022-12-20T03:52:21.410Z,9.40
2022-12-20T03:54:49.155Z,9.36
2022-12-20T03:57:16.960Z,9.36
2022-12-20T03:59:44.641Z,9.44
2022-12-20T04:02:12.536Z,9.45
2022-12-20T04:04:40.326Z,9.46
2022-12-20T04:07:08.273Z,9.45
2022-12-20T04:09:37.410Z,9.46
2022-12-20T04:12:05.220Z,9.45
2022-12-20T04:14:32.971Z,9.46
2022-12-20T04:17:00.800Z,9.47
2022-12-20T04:19:28.476Z,9.48
2022-12-20T04:22:04.711Z,9.48
2022-12-20T04:24:33.532Z,9.48
2022-12-20T04:27:02.560Z,9.48
2022-12-20T04:29:30.346Z,9.49
2022-12-20T04:31:58.085Z,9.48
2022-12-20T04:34:25.959Z,9.49
2022-12-20T04:36:53.798Z,9.49
2022-12-20T04:39:21.521Z,9.50
2022-12-20T04:41:49.240Z,9.52
2022-12-20T04:44:18.522Z,9.51
2022-12-20T04:46:46.225Z,9.51
2022-12-20T04:49:13.980Z,9.51
2022-12-20T04:51:41.637Z,9.51
2022-12-20T04:54:08.337Z,9.51
2022-12-20T04:56:36.048Z,9.51
2022-12-20T04:59:04.185Z,9.50
2022-12-20T05:01:33.402Z,9.51
2022-12-20T05:04:01.293Z,9.51
2022-12-20T05:06:29.068Z,9.52
2022-12-20T05:08:56.800Z,9.52
2022-12-20T05:11:24.471Z,9.50
2022-12-20T05:13:52.292Z,9.52
2022-12-20T05:16:20.088Z,9.51
2022-12-20T05:18:49.717Z,9.51
2022-12-20T05:21:35.041Z,9.52
2022-12-20T05:24:20.382Z,9.53
2022-12-20T05:26:48.113Z,9.54
2022-12-20T05:29:16.825Z,9.54
2022-12-20T05:31:44.642Z,9.55
2022-12-20T05:34:13.758Z,9.56
2022-12-20T05:36:41.424Z,9.54
2022-12-20T05:39:09.178Z,9.54
2022-12-20T05:41:36.837Z,9.55
2022-12-20T05:44:04.681Z,9.54
2022-12-20T05:46:32.396Z,9.54
2022-12-20T05:49:00.184Z,9.55
2022-12-20T05:51:29.310Z,9.56
2022-12-20T05:53:56.960Z,9.55
2022-12-20T05:56:24.725Z,9.56
2022-12-20T05:58:52.409Z,9.57
2022-12-20T06:01:20.191Z,9.58
2022-12-20T06:03:48.052Z,9.58
2022-12-20T06:06:15.768Z,9.60
2022-12-20T06:08:45.083Z,9.59
2022-12-20T06:11:12.808Z,9.62
2022-12-20T06:13:40.525Z,9.69
2022-12-20T06:16:08.709Z,9.71
2022-12-20T06:18:36.499Z,9.71
2022-12-20T06:21:04.577Z,9.71
2022-12-20T06:23:32.256Z,9.76
2022-12-20T06:26:01.273Z,9.79
2022-12-20T06:28:28.920Z,9.87
2022-12-20T06:30:58.205Z,9.83
2022-12-20T06:33:26.464Z,9.86
2022-12-20T06:35:54.532Z,9.81
2022-12-20T06:38:22.182Z,9.81
2022-12-20T06:40:49.836Z,9.75
2022-12-20T06:43:19.041Z,9.71
2022-12-20T06:45:46.807Z,9.70
2022-12-20T06:48:14.520Z,9.68
2022-12-20T06:50:42.192Z,9.70
2022-12-20T06:53:09.889Z,9.60
2022-12-20T06:55:37.596Z,9.69
2022-12-20T06:58:05.441Z,9.68
2022-12-20T07:00:34.831Z,9.67
2022-12-20T07:03:02.762Z,9.66
2022-12-20T07:05:30.591Z,9.65
2022-12-20T07:07:58.345Z,9.64
2022-12-20T07:10:26.180Z,9.64
2022-12-20T07:12:53.992Z,9.64
2022-12-20T07:15:22.940Z,9.64
2022-12-20T07:17:52.357Z,9.64
2022-12-20T07:20:20.315Z,9.64
2022-12-20T07:22:49.016Z,9.64
2022-12-20T07:25:16.939Z,9.63
2022-12-20T07:27:47.376Z,9.55
2022-12-20T07:30:15.456Z,9.63
2022-12-20T07:32:43.261Z,9.63
2022-12-20T07:35:13.069Z,9.64
2022-12-20T07:37:41.153Z,9.63
2022-12-20T07:40:10.383Z,9.64
2022-12-20T07:42:42.908Z,9.64
2022-12-20T07:45:15.928Z,9.55
2022-12-20T07:47:43.799Z,9.64
2022-12-20T07:50:13.174Z,9.65
2022-12-20T07:52:43.595Z,9.65
2022-12-20T07:55:12.801Z,9.64
2022-12-20T07:57:43.901Z,9.65
2022-12-20T08:00:12.927Z,9.66
2022-12-20T08:02:44.403Z,9.61
2022-12-20T08:05:14.122Z,9.69
2022-12-20T08:07:43.942Z,9.68
2022-12-20T08:10:14.870Z,9.67
2022-12-20T08:12:45.156Z,9.69
2022-12-20T08:15:13.348Z,9.62
2022-12-20T08:17:41.053Z,9.70
2022-12-20T08:20:09.752Z,9.70
2022-12-20T08:22:38.828Z,9.70
2022-12-20T08:25:07.529Z,9.69
2022-12-20T08:27:35.251Z,9.70
2022-12-20T08:30:02.994Z,9.68
2022-12-20T08:32:31.078Z,9.70
2022-12-20T08:34:58.798Z,9.70
2022-12-20T08:37:26.470Z,9.73
2022-12-20T08:39:55.542Z,9.72
2022-12-20T08:42:23.493Z,9.74
2022-12-20T08:44:51.167Z,9.74
2022-12-20T08:47:18.888Z,9.75
2022-12-20T08:49:48.063Z,9.84
2022-12-20T08:52:16.175Z,9.94
2022-12-20T08:54:43.963Z,10.12
2022-12-20T08:57:13.042Z,10.28
2022-12-20T08:59:40.769Z,10.43
2022-12-20T09:02:08.701Z,10.61
2022-12-20T09:04:36.656Z,10.77
2022-12-20T09:07:04.766Z,10.93
2022-12-20T09:09:32.391Z,11.09
2022-12-20T09:12:00.050Z,11.21
2022-12-20T09:14:29.148Z,11.34
2022-12-20T09:16:56.860Z,11.44
2022-12-20T09:19:24.561Z,11.48
2022-12-20T09:21:53.016Z,11.46
2022-12-20T09:24:20.733Z,11.58
2022-12-20T09:26:50.326Z,11.63
2022-12-20T09:29:27.090Z,11.64
2022-12-20T09:31:58.780Z,11.65
2022-12-20T09:34:26.742Z,11.67
2022-12-20T09:36:55.136Z,11.69
2022-12-20T09:39:22.896Z,11.72
2022-12-20T09:41:50.743Z,11.75
2022-12-20T09:44:25.180Z,11.76
2022-12-20T09:46:56.480Z,11.77
2022-12-20T09:49:31.317Z,11.80
2022-12-20T09:52:38.477Z,11.84
2022-12-20T09:55:20.666Z,11.89
2022-12-20T09:57:59.118Z,11.91
2022-12-20T10:00:26.928Z,11.92
2022-12-20T10:03:00.599Z,11.84
2022-12-20T10:05:41.944Z,11.70
2022-12-20T10:08:17.886Z,11.52
2022-12-20T10:10:55.902Z,11.34
2022-12-20T10:13:39.106Z,11.21
2022-12-20T10:16:20.716Z,11.09
2022-12-20T10:19:03.863Z,11.01
2022-12-20T10:21:44.157Z,10.93
2022-12-20T10:24:17.739Z,10.87
2022-12-20T10:26:46.753Z,10.81
2022-12-20T10:29:14.553Z,10.86
2022-12-20T10:31:42.725Z,10.98
2022-12-20T10:34:10.495Z,11.14
2022-12-20T10:36:39.853Z,11.30
2022-12-20T10:39:09.223Z,11.46
2022-12-20T10:41:49.998Z,11.62
2022-12-20T10:44:21.329Z,11.73
2022-12-20T10:46:53.790Z,11.85
2022-12-20T10:49:31.115Z,11.98
2022-12-20T10:52:03.707Z,12.08
2022-12-20T10:54:35.233Z,12.15
2022-12-20T10:57:04.759Z,12.17
2022-12-20T10:59:36.105Z,12.18
2022-12-20T11:02:24.936Z,12.19
2022-12-20T11:05:01.223Z,12.22
2022-12-20T11:07:32.808Z,12.23
2022-12-20T11:10:02.621Z,12.20
2022-12-20T11:12:30.676Z,12.10
2022-12-20T11:15:10.903Z,11.95
2022-12-20T11:17:42.808Z,11.74
2022-12-20T11:20:26.747Z,11.56
2022-12-20T11:23:08.431Z,11.43
2022-12-20T11:25:53.816Z,11.30
2022-12-20T11:28:37.483Z,11.24
2022-12-20T11:31:16.707Z,11.14
2022-12-20T11:34:01.844Z,11.09
2022-12-20T11:36:39.708Z,11.05
2022-12-20T11:39:16.610Z,11.00
2022-12-20T11:41:51.618Z,10.96
2022-12-20T11:44:27.602Z,10.91
2022-12-20T11:47:21.103Z,10.87
2022-12-20T11:50:02.883Z,10.85
2022-12-20T11:52:38.036Z,10.83
2022-12-20T11:55:21.275Z,10.80
2022-12-20T12:00:58.232Z,10.76
2022-12-20T12:03:32.297Z,10.74
2022-12-20T12:06:04.520Z,10.73
2022-12-20T12:08:40.866Z,10.71
2022-12-20T12:11:55.701Z,10.70
2022-12-20T12:14:05.575Z,10.87
2022-12-20T12:16:38.822Z,11.04
2022-12-20T12:19:10.239Z,11.21
2022-12-20T12:21:43.968Z,11.38
2022-12-20T12:24:20.594Z,11.55
2022-12-20T12:26:49.678Z,11.72
2022-12-20T12:29:19.409Z,11.85
2022-12-20T12:31:52.409Z,11.99
2022-12-20T12:34:34.920Z,12.13
2022-12-20T12:37:27.816Z,12.23
2022-12-20T12:40:19.127Z,12.29
2022-12-20T12:43:11.314Z,12.31
2022-12-20T12:45:44.600Z,12.22
2022-12-20T12:48:18.289Z,12.12
2022-12-20T12:50:48.597Z,11.98
2022-12-20T12:53:19.385Z,11.82
2022-12-20T12:55:48.666Z,11.67
2022-12-20T12:58:34.478Z,11.51
2022-12-20T13:01:05.528Z,11.43
2022-12-20T13:03:39.804Z,11.39
2022-12-20T13:06:55.001Z,11.42
2022-12-20T13:09:38.171Z,11.33
2022-12-20T13:12:48.920Z,11.28
2022-12-20T13:15:49.390Z,11.26
2022-12-20T13:18:25.521Z,11.20
2022-12-20T13:21:32.722Z,11.15
2022-12-20T13:24:46.502Z,11.08
2022-12-20T13:27:29.367Z,11.03
2022-12-20T13:30:22.252Z,11.02
2022-12-20T13:33:24.463Z,11.00
2022-12-20T13:36:28.799Z,10.96
2022-12-20T13:39:02.298Z,10.93
2022-12-20T13:41:36.596Z,10.92
2022-12-20T13:44:20.484Z,10.89
2022-12-20T13:46:51.512Z,10.87
2022-12-20T13:49:26.859Z,10.86
2022-12-20T13:52:22.555Z,10.92
2022-12-20T13:54:53.335Z,11.04
2022-12-20T13:57:29.012Z,11.24
2022-12-20T14:00:05.655Z,11.42
2022-12-20T14:02:37.499Z,11.58
2022-12-20T14:05:14.751Z,11.79
2022-12-20T14:07:43.584Z,11.94
2022-12-20T14:10:21.906Z,12.05
2022-12-20T14:12:54.175Z,12.16
2022-12-20T14:15:28.879Z,12.28
2022-12-20T14:17:57.259Z,12.36
2022-12-20T14:20:32.355Z,12.42
2022-12-20T14:23:05.881Z,12.46
2022-12-20T14:25:38.776Z,12.49
2022-12-20T14:28:11.342Z,12.52
2022-12-20T14:30:44.661Z,12.53
2022-12-20T14:33:21.844Z,12.54
2022-12-20T14:35:51.784Z,12.55
2022-12-20T14:38:23.467Z,12.54
2022-12-20T14:40:54.197Z,12.51
2022-12-20T14:43:28.617Z,12.38
2022-12-20T14:46:20.041Z,12.18
2022-12-20T14:48:48.136Z,12.03
2022-12-20T14:51:22.057Z,11.87
2022-12-20T14:53:53.380Z,11.80
2022-12-20T14:56:29.740Z,11.71
2022-12-20T14:59:14.730Z,11.61
2022-12-20T15:01:44.446Z,11.54
2022-12-20T15:04:25.224Z,11.45
2022-12-20T15:06:54.357Z,11.43
2022-12-20T15:09:22.169Z,11.38
2022-12-20T15:11:51.701Z,11.34
2022-12-20T15:14:32.993Z,11.32
2022-12-20T15:17:00.695Z,11.29
2022-12-20T15:19:28.861Z,11.24
2022-12-20T15:21:57.966Z,11.26
2022-12-20T15:24:27.683Z,11.23
2022-12-20T15:26:56.427Z,11.22
2022-12-20T15:29:25.593Z,11.20
2022-12-20T15:32:00.821Z,11.18
2022-12-20T15:34:31.066Z,11.16
2022-12-20T15:37:02.391Z,11.38
2022-12-20T15:39:31.040Z,11.24
2022-12-20T15:42:01.564Z,11.16
2022-12-20T15:44:31.542Z,11.11
2022-12-20T15:46:59.424Z,11.02
2022-12-20T15:49:30.505Z,11.06
2022-12-20T15:51:58.612Z,11.04
2022-12-20T15:54:29.905Z,11.03
2022-12-20T15:56:58.651Z,11.03
2022-12-20T16:02:22.865Z,11.04
2022-12-20T16:04:51.562Z,11.03
2022-12-20T16:07:19.392Z,11.01
2022-12-20T16:09:48.736Z,10.98
2022-12-20T16:12:19.143Z,10.98
2022-12-20T16:14:46.898Z,10.97
2022-12-20T16:17:15.428Z,10.93
2022-12-20T16:19:43.391Z,10.95
2022-12-20T16:22:16.734Z,10.94
2022-12-20T16:24:44.937Z,10.93
2022-12-20T16:27:14.200Z,10.92
2022-12-20T16:29:42.043Z,10.90
2022-12-20T16:32:15.493Z,10.87
2022-12-20T16:34:43.517Z,10.89
2022-12-20T16:37:12.571Z,10.87
2022-12-20T16:39:40.390Z,10.86
2022-12-20T16:42:15.132Z,10.87
2022-12-20T16:44:44.860Z,10.86
2022-12-20T16:47:13.290Z,10.85
2022-12-20T16:49:47.294Z,10.83
2022-12-20T16:52:19.579Z,10.84
2022-12-20T16:54:47.360Z,10.84
2022-12-20T16:57:16.446Z,10.82
2022-12-20T16:59:44.536Z,10.83
2022-12-20T17:02:24.386Z,10.83
2022-12-20T17:04:52.263Z,10.82
2022-12-20T17:07:19.972Z,10.82
2022-12-20T17:12:34.542Z,10.82
2022-12-20T17:15:03.051Z,10.82
2022-12-20T17:17:30.792Z,10.82
2022-12-20T17:19:58.846Z,10.82
2022-12-20T17:25:24.423Z,10.77
2022-12-20T17:27:55.620Z,10.79
2022-12-20T17:30:24.548Z,10.81
2022-12-20T17:32:53.385Z,10.79
2022-12-20T17:35:25.004Z,10.79
2022-12-20T17:37:55.754Z,10.79
2022-12-20T17:40:25.224Z,10.81
2022-12-20T17:42:55.237Z,10.83
2022-12-20T17:45:29.078Z,10.83
2022-12-20T17:47:58.303Z,10.84
2022-12-20T17:50:27.688Z,10.85
2022-12-20T17:52:55.990Z,10.85
2022-12-20T17:55:26.074Z,10.86
2022-12-20T17:57:56.573Z,10.86
2022-12-20T18:00:38.141Z,10.86
2022-12-20T18:03:07.384Z,10.85
2022-12-20T18:05:36.277Z,10.84
2022-12-20T18:08:03.966Z,10.84
2022-12-20T18:10:31.955Z,10.84
2022-12-20T18:13:03.314Z,10.83
2022-12-20T18:15:31.014Z,10.81
2022-12-20T18:17:58.709Z,10.81
2022-12-20T18:20:26.435Z,10.83
2022-12-20T18:22:54.152Z,10.85
2022-12-20T18:25:21.970Z,10.88
2022-12-20T18:27:49.721Z,10.89
2022-12-20T18:30:18.894Z,10.89
2022-12-20T18:32:46.991Z,10.89
2022-12-20T18:35:14.721Z,10.89
2022-12-20T18:37:42.436Z,10.88
2022-12-20T18:40:10.880Z,10.86
2022-12-20T18:42:38.645Z,10.86
2022-12-20T18:45:07.132Z,10.86
2022-12-20T18:47:38.249Z,10.86
2022-12-20T18:50:07.572Z,10.89
2022-12-20T18:52:35.279Z,10.90
2022-12-20T18:55:04.158Z,10.91
2022-12-20T18:57:31.954Z,10.92
2022-12-20T18:59:59.703Z,10.93
2022-12-20T19:02:27.965Z,10.91
2022-12-20T19:04:57.243Z,10.91
2022-12-20T19:07:24.930Z,10.91
2022-12-20T19:09:52.667Z,10.90
2022-12-20T19:12:20.352Z,10.89
2022-12-20T19:14:48.078Z,10.85
2022-12-20T19:17:15.807Z,10.88
2022-12-20T19:19:43.609Z,10.86
2022-12-20T19:22:12.721Z,10.86
2022-12-20T19:24:40.421Z,10.86
2022-12-20T19:27:09.429Z,10.84
2022-12-20T19:29:37.224Z,10.84
2022-12-20T19:32:05.523Z,10.84
2022-12-20T19:34:33.188Z,10.83
2022-12-20T19:37:00.896Z,10.83
2022-12-20T19:39:30.434Z,10.82
2022-12-20T19:42:23.089Z,10.81
2022-12-20T19:44:47.299Z,10.82
2022-12-20T19:47:15.000Z,10.81
2022-12-20T19:49:42.701Z,10.81
2022-12-20T19:52:10.661Z,10.81
2022-12-20T19:54:40.167Z,10.80
2022-12-20T19:57:07.985Z,10.80
2022-12-20T19:59:35.864Z,10.79
2022-12-20T20:02:03.766Z,10.79
2022-12-20T20:04:32.004Z,10.77
2022-12-20T20:06:59.741Z,10.76
2022-12-20T20:09:27.438Z,10.80
2022-12-20T20:11:56.561Z,10.79
2022-12-20T20:14:24.627Z,10.79
2022-12-20T20:16:52.961Z,10.72
2022-12-20T20:19:20.940Z,10.79
2022-12-20T20:21:49.198Z,10.77
2022-12-20T20:24:17.365Z,10.74
2022-12-20T20:26:45.255Z,10.78
2022-12-20T20:29:14.340Z,10.75
2022-12-20T20:31:42.306Z,10.71
2022-12-20T20:34:10.108Z,10.75
2022-12-20T20:36:37.834Z,10.74
2022-12-20T20:39:05.769Z,10.74
2022-12-20T20:41:33.807Z,10.73
2022-12-20T20:44:01.535Z,10.73
2022-12-20T20:46:30.660Z,10.74
2022-12-20T20:48:58.441Z,10.72
2022-12-20T20:51:26.183Z,10.73
2022-12-20T20:53:53.937Z,10.72
2022-12-20T20:56:21.697Z,10.71
2022-12-20T20:58:50.018Z,10.72
2022-12-20T21:01:17.801Z,10.71
2022-12-20T21:03:47.105Z,10.70
2022-12-20T21:09:02.665Z,10.70
2022-12-20T21:11:30.528Z,10.70
2022-12-20T21:13:58.306Z,10.69
2022-12-20T21:16:26.375Z,10.68
2022-12-20T21:18:57.415Z,10.68
2022-12-20T21:21:26.628Z,10.67
2022-12-20T21:23:55.736Z,10.67
2022-12-20T21:26:25.371Z,10.67
2022-12-20T21:28:57.701Z,10.67
2022-12-20T21:31:25.475Z,10.67
2022-12-20T21:33:53.213Z,10.67
2022-12-20T21:36:22.294Z,10.67
2022-12-20T21:38:51.189Z,10.66
2022-12-20T21:41:20.029Z,10.67
2022-12-20T21:43:47.977Z,10.67
2022-12-20T21:46:15.813Z,10.67
2022-12-20T21:48:45.652Z,10.68
2022-12-20T21:51:15.280Z,10.67
2022-12-20T21:53:46.671Z,10.67
2022-12-20T21:56:15.765Z,10.67
2022-12-20T21:58:44.248Z,10.67
2022-12-20T22:01:14.145Z,10.66
2022-12-20T22:03:42.520Z,10.67
2022-12-20T22:06:10.714Z,10.66
2022-12-20T22:08:38.734Z,10.66
2022-12-20T22:11:09.606Z,10.65
2022-12-20T22:13:41.559Z,10.62
2022-12-20T22:16:11.682Z,10.64
2022-12-20T22:18:40.675Z,10.62
2022-12-20T22:21:10.665Z,10.63
2022-12-20T22:23:39.114Z,10.62
2022-12-20T22:26:10.391Z,10.62
2022-12-20T22:28:38.645Z,10.62
2022-12-20T22:31:10.837Z,10.60
2022-12-20T22:33:39.432Z,10.59
2022-12-20T22:36:08.457Z,10.56
2022-12-20T22:38:36.465Z,10.55
2022-12-20T22:41:10.064Z,10.60
2022-12-20T22:43:38.576Z,10.59
2022-12-20T22:46:13.092Z,10.57
2022-12-20T22:48:41.779Z,10.58
2022-12-20T22:51:12.700Z,10.58
2022-12-20T22:53:41.402Z,10.56
2022-12-20T22:56:11.509Z,10.58
2022-12-20T22:58:39.927Z,10.57
2022-12-20T23:01:10.195Z,10.56
2022-12-20T23:03:38.418Z,10.55
2022-12-20T23:06:08.470Z,10.55
2022-12-20T23:08:38.042Z,10.54
2022-12-20T23:11:28.338Z,10.49
2022-12-20T23:14:15.034Z,10.53
2022-12-20T23:16:42.851Z,10.53
2022-12-20T23:19:10.553Z,10.53
2022-12-20T23:21:55.756Z,10.52
2022-12-20T23:24:23.688Z,10.51
2022-12-20T23:26:51.346Z,10.48
2022-12-20T23:29:20.409Z,10.52
2022-12-20T23:31:48.135Z,10.52
2022-12-20T23:34:15.861Z,10.51
2022-12-20T23:36:43.616Z,10.52
2022-12-20T23:39:11.367Z,10.52
2022-12-20T23:41:39.080Z,10.51
2022-12-20T23:44:07.829Z,10.51
2022-12-20T23:46:36.914Z,10.50
2022-12-20T23:49:04.625Z,10.50
2022-12-20T23:51:34.503Z,10.50
2022-12-20T23:54:02.258Z,10.49
2022-12-20T23:56:29.997Z,10.48
2022-12-20T23:58:57.878Z,10.49
